Time;durP1;ratioP1;P1;durP2;ratioP2;P2;SDS_P1;SDS_P2;PMS_P1;PMS_P2;Temp;Humidity;BMP_temperature;BMP_pressure;BME280_temperature;BME280_humidity;BME280_pressure;Samples;Min_cycle;Max_cycle;Signal;HPM_P1;HPM_P2
2023/06/26 00:01:22;;;;;;;1.35;0.57;;;14.00;99.90;;;;;;4856420;29;20046;-60
2023/06/26 00:03:50;;;;;;;4.63;0.70;;;14.00;99.90;;;;;;4852988;29;20058;-61
2023/06/26 00:06:17;;;;;;;3.45;1.10;;;14.00;99.90;;;;;;4856250;29;20050;-61
2023/06/26 00:08:45;;;;;;;11.43;1.40;;;14.00;99.90;;;;;;4855564;29;20409;-61
2023/06/26 00:11:13;;;;;;;3.30;1.08;;;13.90;99.90;;;;;;4852991;29;20053;-60
2023/06/26 00:13:41;;;;;;;5.88;1.40;;;13.90;99.90;;;;;;4851622;29;20049;-62
2023/06/26 00:16:09;;;;;;;3.83;0.77;;;13.90;99.90;;;;;;4855247;29;20045;-67
2023/06/26 00:18:37;;;;;;;3.85;1.30;;;13.90;99.90;;;;;;4856389;29;20046;-66
2023/06/26 00:21:05;;;;;;;5.82;0.93;;;13.90;99.90;;;;;;4856142;29;20064;-70
2023/06/26 00:23:36;;;;;;;4.80;1.05;;;13.80;99.90;;;;;;4854934;29;20057;-70
2023/06/26 00:26:07;;;;;;;4.05;1.13;;;13.80;99.90;;;;;;4856284;29;20065;-67
2023/06/26 00:28:35;;;;;;;3.30;1.00;;;13.80;99.90;;;;;;4853646;29;20049;-61
2023/06/26 00:31:04;;;;;;;4.18;0.90;;;13.70;99.90;;;;;;4856093;29;20045;-60
2023/06/26 00:33:32;;;;;;;5.10;1.10;;;13.70;99.90;;;;;;4854106;29;20050;-61
2023/06/26 00:36:00;;;;;;;5.57;0.90;;;13.60;99.90;;;;;;4837411;29;20058;-60
2023/06/26 00:38:28;;;;;;;4.07;1.67;;;13.60;99.90;;;;;;4845114;29;20056;-64
2023/06/26 00:40:58;;;;;;;6.47;1.38;;;13.60;99.90;;;;;;4869261;29;20413;-61
2023/06/26 00:43:26;;;;;;;3.55;0.80;;;13.60;99.90;;;;;;4836520;29;20053;-60
2023/06/26 00:45:53;;;;;;;2.85;1.00;;;13.60;99.90;;;;;;4869950;29;20206;-60
2023/06/26 00:48:22;;;;;;;4.75;1.35;;;13.50;99.90;;;;;;4854135;29;20053;-60
2023/06/26 00:50:51;;;;;;;5.00;1.17;;;13.50;99.90;;;;;;4854674;29;20052;-60
2023/06/26 00:53:19;;;;;;;8.50;1.55;;;13.50;99.90;;;;;;4854630;29;20062;-62
2023/06/26 00:55:47;;;;;;;6.47;1.35;;;13.50;99.90;;;;;;4855420;29;20050;-60
2023/06/26 00:58:15;;;;;;;5.03;1.25;;;13.40;99.90;;;;;;4868573;29;20061;-60
2023/06/26 01:00:45;;;;;;;5.65;1.20;;;13.40;99.90;;;;;;4855303;29;20250;-61
2023/06/26 01:03:13;;;;;;;4.57;1.10;;;13.40;99.90;;;;;;4863170;29;20086;-61
2023/06/26 01:05:45;;;;;;;4.20;1.13;;;13.40;99.90;;;;;;4849899;29;20056;-60
2023/06/26 01:08:13;;;;;;;7.82;1.50;;;13.40;99.90;;;;;;4858523;29;20049;-61
2023/06/26 01:10:42;;;;;;;5.70;1.42;;;13.30;99.90;;;;;;4859448;29;20394;-60
2023/06/26 01:13:13;;;;;;;7.88;1.45;;;13.30;99.90;;;;;;4857254;29;20060;-60
2023/06/26 01:15:40;;;;;;;8.82;1.75;;;13.30;99.90;;;;;;4872282;29;20054;-61
2023/06/26 01:18:08;;;;;;;4.63;1.50;;;13.30;99.90;;;;;;4857803;29;20060;-60
2023/06/26 01:20:41;;;;;;;10.18;1.88;;;13.30;99.90;;;;;;4858158;29;20061;-61
2023/06/26 01:23:12;;;;;;;5.07;1.50;;;13.30;99.90;;;;;;4861705;29;20049;-60
2023/06/26 01:25:58;;;;;;;11.40;1.88;;;13.20;99.90;;;;;;4858840;29;20061;-60
2023/06/26 01:28:27;;;;;;;3.30;1.80;;;13.20;99.90;;;;;;4854623;29;20050;-61
2023/06/26 01:30:58;;;;;;;5.78;2.10;;;13.30;99.90;;;;;;4860738;29;20049;-60
2023/06/26 01:33:26;;;;;;;8.60;2.38;;;13.20;99.90;;;;;;4850039;29;20053;-60
2023/06/26 01:35:54;;;;;;;5.32;1.35;;;13.20;99.90;;;;;;4858037;29;20045;-60
2023/06/26 01:38:28;;;;;;;5.65;1.55;;;13.10;99.90;;;;;;4861655;29;20061;-60
2023/06/26 01:40:58;;;;;;;6.35;1.65;;;13.10;99.90;;;;;;4864734;29;20053;-61
2023/06/26 01:43:44;;;;;;;5.50;2.35;;;13.10;99.90;;;;;;4860929;29;20050;-60
2023/06/26 01:46:32;;;;;;;7.13;1.73;;;13.10;99.90;;;;;;4860954;29;20049;-63
2023/06/26 01:49:08;;;;;;;4.82;1.27;;;13.10;99.90;;;;;;4862178;29;20056;-59
2023/06/26 01:51:58;;;;;;;2.60;1.20;;;13.00;99.90;;;;;;4861621;29;20498;-60
2023/06/26 01:54:30;;;;;;;4.80;1.38;;;13.00;99.90;;;;;;4861765;29;20505;-60
2023/06/26 01:56:59;;;;;;;7.07;2.00;;;13.00;99.90;;;;;;4861899;29;20041;-60
2023/06/26 01:59:31;;;;;;;2.58;1.40;;;12.90;99.90;;;;;;4844552;29;20049;-60
2023/06/26 02:02:01;;;;;;;4.70;1.45;;;12.90;99.90;;;;;;4859918;29;20056;-60
2023/06/26 02:04:28;;;;;;;5.97;1.70;;;12.90;99.90;;;;;;4843375;29;20069;-60
2023/06/26 02:06:57;;;;;;;6.10;1.35;;;12.90;99.90;;;;;;4841868;29;20372;-60
2023/06/26 02:09:24;;;;;;;5.35;1.50;;;12.80;99.90;;;;;;4867631;29;20071;-59
2023/06/26 02:11:52;;;;;;;10.18;2.60;;;12.80;99.90;;;;;;4861141;29;20054;-59
2023/06/26 02:14:19;;;;;;;6.85;1.55;;;12.80;99.90;;;;;;4844181;29;20123;-60
2023/06/26 02:16:47;;;;;;;4.70;1.80;;;12.70;99.90;;;;;;4861511;29;20498;-59
2023/06/26 02:19:21;;;;;;;7.90;1.60;;;12.70;99.90;;;;;;4861399;29;20514;-58
2023/06/26 02:21:52;;;;;;;6.35;1.63;;;12.70;99.90;;;;;;4860481;29;20046;-60
2023/06/26 02:24:19;;;;;;;9.20;1.98;;;12.70;99.90;;;;;;4860552;29;20058;-61
2023/06/26 02:26:49;;;;;;;5.20;1.38;;;12.60;99.90;;;;;;4852321;29;20045;-59
2023/06/26 02:29:16;;;;;;;6.38;2.28;;;12.60;99.90;;;;;;4860052;29;20053;-60
2023/06/26 02:31:44;;;;;;;4.22;1.38;;;12.60;99.90;;;;;;4860011;29;20056;-59
2023/06/26 02:34:12;;;;;;;9.88;1.52;;;12.60;99.90;;;;;;4857880;29;20527;-61
2023/06/26 02:36:39;;;;;;;3.20;1.35;;;12.60;99.90;;;;;;4859790;29;20041;-60
2023/06/26 02:39:08;;;;;;;6.53;1.70;;;12.60;99.90;;;;;;4859831;29;20057;-61
2023/06/26 02:41:35;;;;;;;3.85;1.38;;;12.60;99.90;;;;;;4859850;29;20050;-60
2023/06/26 02:44:05;;;;;;;5.75;1.35;;;12.60;99.90;;;;;;4875233;29;20060;-59
2023/06/26 02:46:33;;;;;;;10.43;1.63;;;12.60;99.90;;;;;;4859762;29;20046;-60
2023/06/26 02:49:01;;;;;;;4.55;1.52;;;12.60;99.90;;;;;;4859018;29;20041;-61
2023/06/26 02:51:29;;;;;;;4.18;1.30;;;12.60;99.90;;;;;;4844493;29;20050;-59
2023/06/26 02:53:58;;;;;;;10.82;1.33;;;12.60;99.90;;;;;;4859607;29;20045;-62
2023/06/26 02:56:28;;;;;;;7.90;1.17;;;12.60;99.90;;;;;;4844534;29;20064;-60
2023/06/26 02:58:57;;;;;;;4.28;1.48;;;12.70;99.90;;;;;;4859460;29;20049;-67
2023/06/26 03:01:26;;;;;;;6.55;1.30;;;12.70;99.90;;;;;;4858333;29;20046;-61
2023/06/26 03:03:54;;;;;;;4.53;1.63;;;12.70;99.90;;;;;;4860095;29;20049;-60
2023/06/26 03:06:22;;;;;;;7.55;3.22;;;12.70;99.90;;;;;;4859505;29;20417;-61
2023/06/26 03:08:50;;;;;;;4.82;1.63;;;12.70;99.90;;;;;;4856083;29;20226;-61
2023/06/26 03:11:17;;;;;;;4.70;1.30;;;12.70;99.90;;;;;;4854810;29;20062;-61
2023/06/26 03:13:46;;;;;;;5.28;1.70;;;12.70;99.90;;;;;;4870444;29;20048;-62
2023/06/26 03:16:14;;;;;;;5.65;1.65;;;12.70;99.90;;;;;;4858998;29;20053;-60
2023/06/26 03:18:42;;;;;;;4.80;1.48;;;12.60;99.90;;;;;;4860383;29;20052;-60
2023/06/26 03:21:10;;;;;;;9.70;1.52;;;12.60;99.90;;;;;;4859413;29;20056;-60
2023/06/26 03:23:40;;;;;;;;;;;12.60;99.90;;;;;;4859384;29;20050;-62
2023/06/26 03:26:07;;;;;;;4.80;1.45;;;12.50;99.90;;;;;;4873283;29;20380;-60
2023/06/26 03:28:37;;;;;;;2.67;1.30;;;12.50;99.90;;;;;;4874638;29;20371;-62
2023/06/26 03:31:05;;;;;;;7.47;1.88;;;12.40;99.90;;;;;;4874439;29;20041;-61
2023/06/26 03:33:32;;;;;;;7.60;1.60;;;12.30;99.90;;;;;;4874345;29;20521;-59
2023/06/26 03:36:00;;;;;;;1.75;1.38;;;12.30;99.90;;;;;;4874269;29;20049;-60
2023/06/26 03:38:28;;;;;;;6.03;1.60;;;12.30;99.90;;;;;;4858935;29;20057;-62
2023/06/26 03:40:58;;;;;;;5.15;1.88;;;12.30;99.90;;;;;;4858719;29;20053;-64
2023/06/26 03:43:25;;;;;;;3.72;1.48;;;12.30;99.90;;;;;;4859927;29;20049;-61
2023/06/26 03:46:16;;;;;;;5.57;1.60;;;12.20;99.90;;;;;;4866573;29;20062;-62
2023/06/26 03:48:44;;;;;;;5.05;1.40;;;12.20;99.90;;;;;;4858571;29;20057;-62
2023/06/26 03:51:12;;;;;;;6.55;1.33;;;12.20;99.90;;;;;;4858771;29;20065;-62
2023/06/26 03:53:40;;;;;;;4.70;1.67;;;12.20;99.90;;;;;;4858534;29;20405;-64
2023/06/26 03:56:07;;;;;;;3.42;1.42;;;12.10;99.90;;;;;;4873789;29;20053;-61
2023/06/26 03:58:35;;;;;;;2.75;1.10;;;12.10;99.90;;;;;;4858590;29;20516;-59
2023/06/26 04:01:02;;;;;;;4.55;1.35;;;12.10;99.90;;;;;;4857737;29;20054;-60
2023/06/26 04:03:31;;;;;;;8.88;1.60;;;12.10;99.90;;;;;;4858540;29;20045;-62
2023/06/26 04:05:59;;;;;;;2.60;1.20;;;12.10;99.90;;;;;;4874073;29;20485;-60
2023/06/26 04:08:26;;;;;;;5.65;1.48;;;12.20;99.90;;;;;;4860020;29;20057;-61
2023/06/26 04:10:57;;;;;;;6.68;1.40;;;12.20;99.90;;;;;;4849535;29;20522;-60
2023/06/26 04:13:26;;;;;;;3.33;1.30;;;12.20;99.90;;;;;;4858956;29;20057;-60
2023/06/26 04:15:53;;;;;;;4.95;1.17;;;12.20;99.90;;;;;;4858626;29;20053;-61
2023/06/26 04:18:21;;;;;;;5.28;1.60;;;12.30;99.90;;;;;;4859969;29;20050;-61
2023/06/26 04:21:07;;;;;;;4.00;1.20;;;12.30;99.90;;;;;;4859487;29;20049;-66
2023/06/26 04:23:35;;;;;;;2.95;1.27;;;12.40;99.90;;;;;;4859405;29;20045;-65
2023/06/26 04:26:05;;;;;;;3.42;1.60;;;12.50;99.90;;;;;;4858521;29;20049;-61
2023/06/26 04:28:36;;;;;;;4.90;1.55;;;12.50;99.90;;;;;;4858872;29;20056;-59
2023/06/26 04:31:04;;;;;;;1.85;1.17;;;12.60;99.90;;;;;;4858908;29;20103;-61
2023/06/26 04:33:31;;;;;;;5.45;1.50;;;12.60;99.90;;;;;;4866473;29;20050;-66
2023/06/26 04:36:03;;;;;;;2.65;1.33;;;12.60;99.90;;;;;;4859295;29;20430;-61
2023/06/26 04:38:34;;;;;;;4.07;1.20;;;12.60;99.90;;;;;;4858402;29;20065;-60
2023/06/26 04:41:02;;;;;;;3.80;1.63;;;12.60;99.90;;;;;;4859095;29;20058;-63
2023/06/26 04:43:30;;;;;;;3.95;1.42;;;12.70;99.90;;;;;;4856718;29;20060;-66
2023/06/26 04:45:58;;;;;;;2.95;1.50;;;12.60;99.90;;;;;;4865625;29;20049;-66
2023/06/26 04:48:27;;;;;;;1.50;0.98;;;12.60;99.90;;;;;;4844130;29;20049;-62
2023/06/26 04:50:55;;;;;;;3.50;1.70;;;12.60;99.90;;;;;;4849642;29;20057;-64
2023/06/26 04:53:23;;;;;;;2.38;1.30;;;12.60;99.90;;;;;;4852786;29;20061;-64
2023/06/26 04:55:52;;;;;;;6.43;1.63;;;12.60;99.90;;;;;;4855613;29;20049;-63
2023/06/26 04:58:20;;;;;;;3.78;0.80;;;12.60;99.90;;;;;;4855237;29;20076;-67
2023/06/26 05:00:48;;;;;;;1.75;1.10;;;12.60;99.90;;;;;;4854195;29;20054;-65
2023/06/26 05:03:18;;;;;;;5.05;1.58;;;12.60;99.90;;;;;;4845493;29;20058;-65
2023/06/26 05:05:46;;;;;;;2.78;1.17;;;12.60;99.90;;;;;;4851282;29;20057;-62
2023/06/26 05:08:18;;;;;;;2.90;1.23;;;12.60;99.90;;;;;;4852086;29;20057;-60
2023/06/26 05:10:46;;;;;;;3.55;1.05;;;12.60;99.90;;;;;;4851810;29;20065;-60
2023/06/26 05:13:17;;;;;;;4.43;1.30;;;12.60;99.90;;;;;;4865871;29;20053;-60
2023/06/26 05:15:49;;;;;;;4.85;1.42;;;12.60;99.90;;;;;;4846181;29;20057;-61
2023/06/26 05:18:17;;;;;;;1.92;1.05;;;12.70;99.90;;;;;;4835674;29;20524;-60
2023/06/26 05:20:45;;;;;;;2.17;1.17;;;12.70;99.90;;;;;;4855158;29;20060;-60
2023/06/26 05:23:13;;;;;;;3.15;1.35;;;12.70;99.90;;;;;;4855052;29;20053;-60
2023/06/26 05:25:41;;;;;;;3.70;1.35;;;12.80;99.90;;;;;;4855746;29;20049;-60
2023/06/26 05:28:10;;;;;;;3.08;1.27;;;12.80;99.90;;;;;;4855453;29;20061;-60
2023/06/26 05:30:38;;;;;;;5.53;1.17;;;12.90;99.90;;;;;;4853254;29;20490;-60
2023/06/26 05:33:09;;;;;;;3.00;0.98;;;12.90;99.90;;;;;;4852747;29;20045;-59
2023/06/26 05:35:37;;;;;;;5.32;1.02;;;13.00;99.90;;;;;;4855686;29;20069;-60
2023/06/26 05:38:05;;;;;;;2.35;1.08;;;13.10;99.90;;;;;;4855238;29;20482;-59
2023/06/26 05:40:34;;;;;;;5.93;1.60;;;13.10;99.90;;;;;;4855360;29;20053;-62
2023/06/26 05:43:03;;;;;;;2.78;1.15;;;13.20;99.90;;;;;;4855827;29;20042;-60
2023/06/26 05:45:31;;;;;;;6.47;3.22;;;13.20;99.90;;;;;;4842594;29;20062;-60
2023/06/26 05:47:59;;;;;;;3.70;1.50;;;13.20;99.90;;;;;;4851343;29;20777;-62
2023/06/26 05:50:28;;;;;;;3.50;1.08;;;13.30;99.90;;;;;;4840409;29;20065;-61
2023/06/26 05:52:57;;;;;;;8.88;1.70;;;13.30;99.90;;;;;;4848819;29;20061;-60
2023/06/26 05:55:25;;;;;;;3.97;1.40;;;13.40;99.90;;;;;;4856603;29;20054;-60
2023/06/26 05:57:56;;;;;;;3.80;1.27;;;13.40;99.90;;;;;;4858385;29;20053;-60
2023/06/26 06:00:26;;;;;;;3.38;1.25;;;13.50;99.90;;;;;;4858629;29;20052;-60
2023/06/26 06:02:54;;;;;;;;;;;13.60;99.90;;;;;;4857494;29;20057;-60
2023/06/26 06:05:23;;;;;;;6.43;1.63;;;13.60;99.90;;;;;;4857779;29;19924;-61
2023/06/26 06:07:51;;;;;;;9.05;1.10;;;13.60;99.90;;;;;;4858445;29;20053;-61
2023/06/26 06:10:19;;;;;;;5.07;1.55;;;13.70;99.90;;;;;;4852126;29;20058;-61
2023/06/26 06:12:47;;;;;;;3.67;1.23;;;13.70;99.90;;;;;;4853729;29;20072;-60
2023/06/26 06:15:14;;;;;;;4.20;1.02;;;13.80;99.90;;;;;;4855922;29;20053;-63
2023/06/26 06:17:42;;;;;;;5.00;1.45;;;13.90;99.90;;;;;;4856374;29;20069;-60
2023/06/26 06:20:10;;;;;;;4.18;1.27;;;13.90;99.90;;;;;;4851811;29;20371;-65
2023/06/26 06:22:38;;;;;;;5.18;1.40;;;14.00;99.90;;;;;;4855258;29;20042;-66
2023/06/26 06:25:06;;;;;;;5.85;1.20;;;14.00;99.90;;;;;;4857723;29;20405;-69
2023/06/26 06:27:35;;;;;;;6.00;1.30;;;14.00;99.90;;;;;;4851735;29;20131;-70
2023/06/26 06:30:04;;;;;;;1.90;0.80;;;14.10;99.90;;;;;;4851032;29;20515;-64
2023/06/26 06:32:34;;;;;;;3.38;1.83;;;14.20;99.90;;;;;;4856707;29;20057;-71
2023/06/26 06:35:09;;;;;;;4.30;1.10;;;14.20;99.90;;;;;;4839372;29;20061;-66
2023/06/26 06:37:38;;;;;;;2.55;0.90;;;14.30;99.90;;;;;;4844489;29;20049;-64
2023/06/26 06:40:08;;;;;;;6.00;1.00;;;14.40;99.90;;;;;;4855805;29;20502;-61
2023/06/26 06:42:36;;;;;;;4.20;1.08;;;14.40;99.90;;;;;;4857863;29;20057;-65
2023/06/26 06:45:05;;;;;;;5.63;1.15;;;14.50;99.90;;;;;;4858383;29;20050;-68
2023/06/26 06:47:33;;;;;;;3.47;1.15;;;14.60;99.90;;;;;;4857811;29;20098;-61
2023/06/26 06:50:07;;;;;;;5.80;1.35;;;14.60;99.90;;;;;;4840216;29;20061;-69
2023/06/26 06:52:38;;;;;;;1.65;0.95;;;14.70;99.90;;;;;;4848022;29;20050;-67
2023/06/26 06:55:08;;;;;;;3.72;1.00;;;14.70;99.90;;;;;;4856174;29;20502;-62
2023/06/26 06:57:38;;;;;;;6.70;1.35;;;14.80;99.90;;;;;;4855495;29;20060;-62
2023/06/26 07:00:12;;;;;;;4.20;1.30;;;14.90;99.90;;;;;;4857649;29;20053;-62
2023/06/26 07:02:42;;;;;;;3.92;1.08;;;14.90;99.90;;;;;;4855044;29;20053;-77
2023/06/26 07:05:11;;;;;;;3.90;1.13;;;15.00;99.90;;;;;;4837181;29;20066;-76
2023/06/26 07:07:39;;;;;;;3.50;0.98;;;15.00;99.90;;;;;;4855904;29;20046;-72
2023/06/26 07:10:09;;;;;;;5.07;1.00;;;15.10;99.90;;;;;;4855240;29;20286;-77
2023/06/26 07:12:38;;;;;;;3.10;1.08;;;15.20;99.90;;;;;;4856047;29;20065;-73
2023/06/26 07:15:06;;;;;;;8.90;1.50;;;15.20;99.90;;;;;;4854716;29;20077;-78
2023/06/26 07:17:35;;;;;;;5.00;1.10;;;15.30;99.90;;;;;;4857114;29;20053;-79
2023/06/26 07:20:10;;;;;;;10.82;1.50;;;15.40;99.90;;;;;;4842818;29;20482;-69
2023/06/26 07:22:38;;;;;;;5.70;1.00;;;15.30;99.90;;;;;;4857393;29;20076;-75
2023/06/26 07:25:09;;;;;;;6.00;1.02;;;15.40;99.90;;;;;;4857108;29;20050;-63
2023/06/26 07:27:41;;;;;;;3.85;1.17;;;15.40;99.90;;;;;;4854407;29;20069;-76
2023/06/26 07:30:09;;;;;;;5.40;1.30;;;15.50;99.90;;;;;;4856635;29;20075;-61
2023/06/26 07:32:37;;;;;;;3.67;1.67;;;15.50;99.90;;;;;;4856692;29;20053;-62
2023/06/26 07:35:05;;;;;;;4.68;1.40;;;15.60;99.90;;;;;;4841244;29;20065;-61
2023/06/26 07:37:33;;;;;;;4.65;1.83;;;15.90;99.90;;;;;;4842236;29;20052;-64
2023/06/26 07:40:02;;;;;;;8.77;1.60;;;15.70;99.90;;;;;;4854707;29;20054;-60
2023/06/26 07:42:29;;;;;;;4.53;1.33;;;15.80;99.90;;;;;;4856554;29;20054;-62
2023/06/26 07:44:57;;;;;;;3.50;0.95;;;15.80;99.90;;;;;;4856914;29;20041;-61
2023/06/26 07:47:25;;;;;;;5.75;0.90;;;15.90;99.90;;;;;;4854512;29;20061;-60
2023/06/26 07:49:53;;;;;;;1.55;0.80;;;15.90;99.90;;;;;;4843648;29;20050;-59
2023/06/26 07:52:20;;;;;;;2.72;0.95;;;16.00;99.90;;;;;;4841637;29;20053;-59
2023/06/26 07:54:48;;;;;;;4.45;1.27;;;16.10;99.90;;;;;;4856390;29;20502;-61
2023/06/26 07:57:15;;;;;;;4.60;1.30;;;16.10;99.90;;;;;;4853716;29;20064;-62
2023/06/26 07:59:43;;;;;;;5.53;1.23;;;16.20;99.90;;;;;;4855280;29;20053;-61
2023/06/26 08:02:11;;;;;;;3.63;0.80;;;16.30;99.90;;;;;;4849656;29;20056;-60
2023/06/26 08:04:39;;;;;;;5.22;1.13;;;16.30;99.90;;;;;;4842218;29;20422;-62
2023/06/26 08:07:07;;;;;;;4.82;0.90;;;16.30;99.90;;;;;;4847475;29;20410;-62
2023/06/26 08:09:35;;;;;;;6.60;1.10;;;16.40;99.90;;;;;;4856171;29;20045;-61
2023/06/26 08:12:03;;;;;;;3.60;0.65;;;16.40;99.90;;;;;;4856085;29;20061;-62
2023/06/26 08:14:33;;;;;;;4.43;1.05;;;16.50;99.90;;;;;;4855106;29;20506;-62
2023/06/26 08:17:00;;;;;;;5.43;0.90;;;16.70;99.90;;;;;;4851656;29;20038;-60
2023/06/26 08:19:28;;;;;;;6.35;1.05;;;16.80;99.90;;;;;;4842972;29;20053;-61
2023/06/26 08:21:56;;;;;;;8.45;0.88;;;16.90;99.90;;;;;;4836530;29;20061;-61
2023/06/26 08:24:24;;;;;;;7.00;1.05;;;17.00;99.90;;;;;;4855351;29;20041;-74
2023/06/26 08:26:51;;;;;;;7.10;1.10;;;17.00;99.90;;;;;;4854284;29;20069;-66
2023/06/26 08:29:19;;;;;;;6.78;0.90;;;17.20;99.90;;;;;;4853372;29;20041;-65
2023/06/26 08:31:47;;;;;;;7.00;0.70;;;17.30;99.90;;;;;;4856052;29;20049;-63
2023/06/26 08:34:14;;;;;;;5.18;1.05;;;17.40;99.90;;;;;;4850174;29;20054;-73
2023/06/26 08:36:43;;;;;;;7.43;1.27;;;17.40;99.90;;;;;;4841995;29;20049;-74
2023/06/26 08:39:10;;;;;;;5.13;0.80;;;17.30;99.90;;;;;;4853852;29;20052;-60
2023/06/26 08:41:38;;;;;;;5.60;1.30;;;17.40;99.90;;;;;;4855586;29;20053;-65
2023/06/26 08:44:06;;;;;;;5.75;0.73;;;17.40;99.90;;;;;;4855643;29;20053;-64
2023/06/26 08:46:34;;;;;;;6.40;0.90;;;17.50;99.90;;;;;;4854944;29;20414;-62
2023/06/26 08:49:08;;;;;;;5.55;0.93;;;17.50;99.90;;;;;;4852840;29;20057;-61
2023/06/26 08:51:38;;;;;;;7.32;1.88;;;17.60;99.90;;;;;;4854787;29;20068;-66
2023/06/26 08:54:11;;;;;;;3.80;0.80;;;17.50;99.90;;;;;;4855572;29;20664;-61
2023/06/26 08:56:44;;;;;;;5.90;0.73;;;17.60;99.90;;;;;;4855145;29;21893;-66
2023/06/26 08:59:14;;;;;;;7.30;0.80;;;17.70;99.90;;;;;;4853260;29;20054;-64
2023/06/26 09:01:42;;;;;;;3.20;1.00;;;17.70;99.90;;;;;;4869549;29;20069;-66
2023/06/26 09:04:10;;;;;;;4.25;0.70;;;17.70;99.90;;;;;;4851647;29;20054;-60
2023/06/26 09:06:39;;;;;;;5.18;1.42;;;17.80;99.90;;;;;;4837694;29;20050;-62
2023/06/26 09:09:07;;;;;;;4.80;0.85;;;17.90;99.90;;;;;;4851029;29;20049;-62
2023/06/26 09:11:35;;;;;;;5.40;0.95;;;18.00;99.90;;;;;;4853974;29;20054;-61
2023/06/26 09:14:06;;;;;;;6.82;1.30;;;18.10;99.90;;;;;;4853400;29;20061;-61
2023/06/26 09:16:41;;;;;;;9.02;0.95;;;18.10;99.90;;;;;;4856275;29;20061;-62
2023/06/26 09:19:11;;;;;;;3.40;1.08;;;18.00;99.90;;;;;;4856429;29;20049;-61
2023/06/26 09:21:40;;;;;;;5.32;0.90;;;18.10;99.90;;;;;;4847143;29;20061;-61
2023/06/26 09:24:09;;;;;;;5.45;1.48;;;18.10;99.90;;;;;;4857972;29;20056;-76
2023/06/26 09:26:38;;;;;;;4.93;1.00;;;18.00;99.90;;;;;;4858995;29;20061;-76
2023/06/26 09:29:07;;;;;;;3.42;0.75;;;18.00;99.90;;;;;;4856074;29;20049;-75
2023/06/26 09:31:37;;;;;;;2.85;0.80;;;18.00;99.90;;;;;;4858994;29;20053;-61
2023/06/26 09:34:10;;;;;;;3.40;0.75;;;18.00;99.90;;;;;;4857815;29;20060;-62
2023/06/26 09:36:38;;;;;;;3.70;1.00;;;18.20;99.90;;;;;;4859196;29;20054;-73
2023/06/26 09:39:10;;;;;;;2.88;0.65;;;18.40;99.90;;;;;;4871695;29;20053;-72
2023/06/26 09:41:52;;;;;;;2.28;0.85;;;18.50;99.90;;;;;;4857794;29;20056;-74
2023/06/26 09:44:20;;;;;;;5.05;1.15;;;18.70;99.90;;;;;;4858428;29;20131;-74
2023/06/26 09:46:48;;;;;;;3.22;1.10;;;18.90;99.90;;;;;;4857419;29;20053;-64
2023/06/26 09:49:17;;;;;;;3.28;0.60;;;19.10;99.90;;;;;;4855478;29;20065;-68
2023/06/26 09:51:44;;;;;;;3.55;0.98;;;19.30;99.90;;;;;;4840350;29;20057;-68
2023/06/26 09:54:16;;;;;;;4.05;1.23;;;19.30;99.90;;;;;;4855324;29;20069;-77
2023/06/26 09:56:43;;;;;;;3.17;0.70;;;19.30;99.90;;;;;;4854883;29;20054;-76
2023/06/26 09:59:12;;;;;;;4.25;0.82;;;19.40;99.90;;;;;;4857233;29;20050;-76
2023/06/26 10:01:44;;;;;;;3.93;0.90;;;19.60;99.90;;;;;;4856304;29;20057;-74
2023/06/26 10:04:14;;;;;;;2.53;0.35;;;19.70;99.90;;;;;;4853290;29;20049;-75
2023/06/26 10:06:54;;;;;;;5.82;0.60;;;19.80;99.90;;;;;;4855739;29;20050;-64
2023/06/26 10:09:23;;;;;;;7.20;0.70;;;19.80;99.90;;;;;;4855313;29;20061;-66
2023/06/26 10:12:06;;;;;;;2.88;0.50;;;19.80;99.90;;;;;;4849391;29;20057;-62
2023/06/26 10:14:36;;;;;;;4.55;0.65;;;19.80;99.80;;;;;;4855417;29;20057;-62
2023/06/26 10:17:09;;;;;;;4.03;0.90;;;19.70;99.90;;;;;;4854142;29;20068;-61
2023/06/26 10:19:39;;;;;;;1.35;0.50;;;19.50;99.90;;;;;;4850673;29;20053;-60
2023/06/26 10:22:08;;;;;;;4.28;0.50;;;19.30;99.90;;;;;;4850235;29;20045;-61
2023/06/26 10:24:36;;;;;;;4.18;0.60;;;19.40;99.90;;;;;;4853757;29;20053;-61
2023/06/26 10:27:15;;;;;;;3.55;0.77;;;19.50;99.90;;;;;;4866299;29;20049;-62
2023/06/26 10:29:52;;;;;;;4.20;0.60;;;19.60;99.90;;;;;;4850170;29;20056;-61
2023/06/26 10:32:23;;;;;;;3.80;0.85;;;19.80;99.90;;;;;;4854975;29;20187;-60
2023/06/26 10:34:52;;;;;;;3.67;0.65;;;20.00;99.80;;;;;;4854303;29;20430;-60
2023/06/26 10:37:19;;;;;;;7.68;0.80;;;20.20;99.80;;;;;;4851918;29;20045;-61
2023/06/26 10:39:52;;;;;;;4.25;0.50;;;20.80;99.40;;;;;;4866246;29;20063;-60
2023/06/26 10:42:35;;;;;;;3.00;0.63;;;20.80;99.50;;;;;;4850270;29;20054;-60
2023/06/26 10:45:29;;;;;;;3.78;0.63;;;21.00;97.70;;;;;;4854797;29;20052;-60
2023/06/26 10:47:58;;;;;;;2.17;0.65;;;21.00;97.80;;;;;;4855632;29;20060;-64
2023/06/26 10:50:26;;;;;;;3.67;0.95;;;20.90;98.20;;;;;;4852800;29;20049;-72
2023/06/26 10:53:20;;;;;;;5.20;0.98;;;20.80;98.30;;;;;;4854956;29;20059;-63
2023/06/26 10:55:56;;;;;;;3.53;0.77;;;20.90;98.20;;;;;;4854916;29;20062;-60
2023/06/26 10:58:32;;;;;;;3.70;0.50;;;21.00;97.80;;;;;;4851375;29;20494;-61
2023/06/26 11:01:15;;;;;;;0.82;0.50;;;21.20;97.10;;;;;;4853579;29;20514;-63
2023/06/26 11:04:04;;;;;;;7.55;0.85;;;21.20;96.60;;;;;;4856336;29;20064;-60
2023/06/26 11:06:34;;;;;;;5.15;0.75;;;21.30;96.80;;;;;;4849758;29;20417;-60
2023/06/26 11:09:04;;;;;;;5.43;0.65;;;21.20;96.80;;;;;;4866298;29;20050;-65
2023/06/26 11:11:59;;;;;;;4.53;0.68;;;21.10;96.70;;;;;;4849777;29;20049;-65
2023/06/26 11:14:27;;;;;;;2.78;0.60;;;21.00;96.30;;;;;;4854755;29;20046;-70
2023/06/26 11:16:56;;;;;;;4.18;0.90;;;20.80;96.40;;;;;;4845646;29;20055;-73
2023/06/26 11:19:27;;;;;;;2.50;0.60;;;20.60;97.10;;;;;;4853226;29;20379;-74
2023/06/26 11:22:00;;;;;;;5.88;1.00;;;20.60;97.40;;;;;;4853741;29;20054;-62
2023/06/26 11:24:29;;;;;;;1.50;0.55;;;20.50;97.40;;;;;;4855539;29;20049;-63
2023/06/26 11:27:00;;;;;;;5.45;0.82;;;20.50;97.50;;;;;;4855225;29;20065;-64
2023/06/26 11:29:28;;;;;;;4.68;0.60;;;20.60;97.70;;;;;;4854380;29;20057;-62
2023/06/26 11:32:01;;;;;;;5.13;0.77;;;20.60;97.60;;;;;;4856928;29;20482;-61
2023/06/26 11:34:32;;;;;;;3.90;0.60;;;20.80;96.50;;;;;;4854609;29;20060;-61
2023/06/26 11:37:01;;;;;;;4.57;0.60;;;20.80;96.30;;;;;;4849435;29;20061;-64
2023/06/26 11:39:29;;;;;;;3.03;0.55;;;20.70;96.30;;;;;;4851034;29;20046;-63
2023/06/26 11:41:56;;;;;;;6.13;0.95;;;20.90;97.20;;;;;;4855688;29;20042;-62
2023/06/26 11:44:28;;;;;;;2.60;0.45;;;21.00;97.30;;;;;;4854691;29;20058;-61
2023/06/26 11:46:57;;;;;;;4.97;0.80;;;21.20;96.50;;;;;;4854945;29;20049;-61
2023/06/26 11:49:26;;;;;;;3.22;0.60;;;21.20;96.20;;;;;;4845616;29;20413;-64
2023/06/26 11:51:57;;;;;;;3.53;0.77;;;21.10;96.00;;;;;;4846538;29;20057;-62
2023/06/26 11:54:27;;;;;;;2.75;0.50;;;20.90;95.70;;;;;;4870024;29;20068;-63
2023/06/26 11:56:56;;;;;;;3.75;0.60;;;20.70;95.60;;;;;;4854401;29;20402;-61
2023/06/26 11:59:34;;;;;;;5.10;0.60;;;20.50;96.10;;;;;;4853501;29;20045;-61
2023/06/26 12:02:16;;;;;;;4.22;0.60;;;20.50;96.60;;;;;;4854811;29;20056;-62
2023/06/26 12:04:45;;;;;;;2.78;0.47;;;20.50;96.50;;;;;;4839079;29;20054;-62
2023/06/26 12:07:13;;;;;;;3.78;0.82;;;20.60;96.00;;;;;;4846895;29;20050;-61
2023/06/26 12:09:46;;;;;;;4.07;1.10;;;20.90;96.20;;;;;;4843874;29;20375;-71
2023/06/26 12:12:18;;;;;;;1.77;0.50;;;21.20;95.70;;;;;;4854269;29;20057;-61
2023/06/26 12:14:46;;;;;;;4.65;0.73;;;21.40;95.30;;;;;;4847522;29;20084;-74
2023/06/26 12:17:14;;;;;;;4.78;0.47;;;21.50;94.60;;;;;;4838011;29;20434;-74
2023/06/26 12:19:50;;;;;;;2.60;0.47;;;21.40;95.20;;;;;;4856200;29;20084;-74
2023/06/26 12:22:18;;;;;;;2.80;0.85;;;21.30;94.50;;;;;;4851362;29;20054;-75
2023/06/26 12:24:47;;;;;;;3.20;1.00;;;21.20;94.50;;;;;;4855366;29;20539;-78
2023/06/26 12:27:18;;;;;;;3.38;0.60;;;21.20;94.40;;;;;;4853700;29;20057;-77
2023/06/26 12:29:53;;;;;;;5.63;0.73;;;21.50;95.80;;;;;;4852760;29;21155;-77
2023/06/26 12:32:25;;;;;;;1.95;0.65;;;22.00;94.00;;;;;;4855051;29;20049;-76
2023/06/26 12:34:57;;;;;;;3.03;0.88;;;22.10;93.30;;;;;;4855395;29;20053;-76
2023/06/26 12:37:24;;;;;;;3.95;0.70;;;22.00;93.60;;;;;;4851826;29;20053;-77
2023/06/26 12:40:00;;;;;;;1.75;0.50;;;22.00;94.50;;;;;;4854897;29;20042;-76
2023/06/26 12:42:32;;;;;;;1.80;0.57;;;22.30;93.80;;;;;;4838279;29;20517;-73
2023/06/26 12:45:10;;;;;;;3.47;0.40;;;22.90;93.50;;;;;;4855370;29;20053;-77
2023/06/26 12:48:07;;;;;;;2.63;0.63;;;23.50;92.50;;;;;;4853524;29;20049;-70
2023/06/26 12:50:53;;;;;;;6.75;0.60;;;23.90;90.80;;;;;;4850625;29;20053;-72
2023/06/26 12:53:20;;;;;;;4.30;0.90;;;24.20;90.40;;;;;;4845895;29;20061;-72
2023/06/26 12:55:48;;;;;;;1.83;0.40;;;24.40;90.50;;;;;;4858420;29;20064;-65
2023/06/26 12:58:17;;;;;;;3.25;0.85;;;24.70;90.00;;;;;;4857441;29;20062;-64
2023/06/26 13:00:45;;;;;;;3.42;0.50;;;25.00;90.40;;;;;;4856472;29;20060;-67
2023/06/26 13:03:12;;;;;;;2.58;0.50;;;25.40;87.80;;;;;;4859488;29;20050;-62